Time;durP1;ratioP1;P1;durP2;ratioP2;P2;SDS_P1;SDS_P2;PMS_P1;PMS_P2;Temp;Humidity;BMP_temperature;BMP_pressure;BME280_temperature;BME280_humidity;BME280_pressure;Samples;Min_cycle;Max_cycle;Signal;HPM_P1;HPM_P2
2023/08/14 00:01:53;;;;;;;8.52;3.70;;;;;;;17.71;100.00;101527.28;5059435;28;20059;-72
2023/08/14 00:04:20;;;;;;;5.20;3.65;;;;;;;17.73;100.00;101535.06;5083896;28;20419;-72
2023/08/14 00:06:46;;;;;;;6.55;3.58;;;;;;;17.68;100.00;101530.31;5073700;28;20133;-73
2023/08/14 00:09:13;;;;;;;6.35;4.22;;;;;;;17.67;100.00;101533.13;5078040;28;20402;-72
2023/08/14 00:11:39;;;;;;;5.22;3.78;;;;;;;17.66;100.00;101532.31;5057446;28;20098;-72
2023/08/14 00:14:06;;;;;;;8.40;4.43;;;;;;;17.67;100.00;101541.09;5078699;28;20055;-72
2023/08/14 00:16:32;;;;;;;7.47;4.43;;;;;;;17.69;100.00;101545.22;5083308;28;20048;-72
2023/08/14 00:18:59;;;;;;;7.13;3.70;;;;;;;17.71;100.00;101542.38;5067941;28;20051;-72
2023/08/14 00:21:25;;;;;;;6.05;3.65;;;;;;;17.69;100.00;101539.09;5075566;28;20503;-72
2023/08/14 00:23:52;;;;;;;8.10;3.95;;;;;;;17.67;100.00;101536.59;5085114;28;20082;-72
2023/08/14 00:26:18;;;;;;;8.32;4.28;;;;;;;17.65;100.00;101529.81;5078114;28;20052;-72
2023/08/14 00:28:45;;;;;;;10.65;4.47;;;;;;;17.65;100.00;101525.34;5078916;28;20063;-73
2023/08/14 00:31:12;;;;;;;6.22;3.83;;;;;;;17.61;100.00;101520.56;5069319;28;20158;-72
2023/08/14 00:33:38;;;;;;;7.03;3.72;;;;;;;17.57;100.00;101520.91;5047583;28;20048;-71
2023/08/14 00:36:05;;;;;;;5.90;3.70;;;;;;;17.57;100.00;101520.09;5051701;28;20049;-72
2023/08/14 00:38:32;;;;;;;5.97;3.58;;;;;;;17.61;100.00;101517.91;5068705;28;20040;-72
2023/08/14 00:40:59;;;;;;;6.97;3.42;;;;;;;17.61;100.00;101520.56;5072957;28;20066;-72
2023/08/14 00:43:26;;;;;;;7.07;3.25;;;;;;;17.59;100.00;101513.59;5078661;28;20048;-72
2023/08/14 00:45:55;;;;;;;6.32;3.90;;;;;;;17.58;100.00;101508.47;5065133;28;20098;-72
2023/08/14 00:48:25;;;;;;;7.72;3.67;;;;;;;17.54;100.00;101507.16;5073621;28;20150;-72
2023/08/14 00:50:53;;;;;;;6.25;3.70;;;;;;;17.53;100.00;101506.34;5081497;28;20055;-72
2023/08/14 00:53:23;;;;;;;8.25;3.72;;;;;;;17.49;100.00;101509.53;5059239;28;20058;-72
2023/08/14 00:55:50;;;;;;;7.05;4.05;;;;;;;17.46;100.00;101504.56;5068299;28;20130;-72
2023/08/14 00:58:17;;;;;;;6.22;3.67;;;;;;;17.38;100.00;101506.25;5083764;28;20101;-72
2023/08/14 01:00:44;;;;;;;7.53;3.33;;;;;;;17.33;100.00;101505.16;5079708;28;20048;-72
2023/08/14 01:03:10;;;;;;;5.50;3.30;;;;;;;17.34;100.00;101509.44;5058388;28;20066;-72
2023/08/14 01:05:38;;;;;;;6.88;4.18;;;;;;;17.34;100.00;101512.91;5058974;28;20094;-72
2023/08/14 01:08:05;;;;;;;6.82;4.05;;;;;;;17.35;100.00;101513.75;5070794;28;20125;-72
2023/08/14 01:10:55;;;;;;;8.43;4.07;;;;;;;17.38;100.00;101519.50;5053938;28;20413;-72
2023/08/14 01:13:34;;;;;;;10.75;5.40;;;;;;;17.42;100.00;101519.19;5086235;28;20832;-72
2023/08/14 01:16:03;;;;;;;;;;;;;;;17.45;100.00;101519.66;5076448;28;20505;-72
2023/08/14 01:18:33;;;;;;;7.43;4.32;;;;;;;17.45;100.00;101517.00;5075695;28;20029;-72
2023/08/14 01:21:11;;;;;;;8.27;4.70;;;;;;;17.45;100.00;101511.72;5083903;28;20040;-72
2023/08/14 01:24:13;;;;;;;6.55;4.53;;;;;;;17.43;100.00;101516.38;5069831;28;20063;-72
2023/08/14 01:26:39;;;;;;;6.15;4.18;;;;;;;17.39;100.00;101513.22;5049925;28;20061;-72
2023/08/14 01:29:06;;;;;;;9.30;4.07;;;;;;;17.41;100.00;101512.25;5075001;28;20135;-72
2023/08/14 01:31:32;;;;;;;8.10;4.03;;;;;;;17.37;100.00;101514.41;5057585;28;20048;-72
2023/08/14 01:33:59;;;;;;;7.35;3.75;;;;;;;17.35;100.00;101503.16;5075351;28;20485;-72
2023/08/14 01:36:33;;;;;;;8.05;4.50;;;;;;;17.32;100.00;101496.34;5079057;28;20567;-71
2023/08/14 01:39:07;;;;;;;8.57;3.50;;;;;;;17.28;100.00;101505.66;5076168;28;20470;-72
2023/08/14 01:41:43;;;;;;;5.80;3.90;;;;;;;17.22;100.00;101495.75;5077771;28;20059;-72
2023/08/14 01:44:14;;;;;;;7.20;3.97;;;;;;;17.15;100.00;101490.34;5075824;28;20048;-72
2023/08/14 01:46:42;;;;;;;6.50;3.78;;;;;;;17.11;100.00;101491.69;5065364;28;20118;-72
2023/08/14 01:49:13;;;;;;;5.25;3.28;;;;;;;17.09;100.00;101488.38;5076084;28;20051;-72
2023/08/14 01:51:41;;;;;;;4.82;3.42;;;;;;;17.05;100.00;101496.81;5059924;28;20086;-71
2023/08/14 01:54:08;;;;;;;5.57;3.00;;;;;;;16.99;100.00;101488.59;5061039;28;20532;-72
2023/08/14 01:56:34;;;;;;;5.10;3.20;;;;;;;16.92;100.00;101492.91;5060096;28;20048;-72
2023/08/14 01:59:01;;;;;;;6.20;3.47;;;;;;;16.92;100.00;101484.97;5067394;28;20048;-72
2023/08/14 02:01:27;;;;;;;5.72;3.38;;;;;;;16.91;100.00;101487.78;5068114;28;20052;-72
2023/08/14 02:03:54;;;;;;;5.63;3.05;;;;;;;16.89;100.00;101479.19;5070922;28;20131;-72
2023/08/14 02:06:21;;;;;;;8.57;3.55;;;;;;;16.81;100.00;101474.69;5056332;28;20048;-72
2023/08/14 02:08:47;;;;;;;5.20;3.20;;;;;;;16.82;100.00;101484.34;5074558;28;20619;-72
2023/08/14 02:11:14;;;;;;;6.00;3.67;;;;;;;16.79;100.00;101484.63;5061869;28;20040;-72
2023/08/14 02:13:40;;;;;;;5.22;3.55;;;;;;;16.78;100.00;101473.22;5084054;28;20089;-73
2023/08/14 02:16:07;;;;;;;5.28;3.00;;;;;;;16.73;100.00;101459.66;5078085;28;20117;-72
2023/08/14 02:18:33;;;;;;;6.05;3.17;;;;;;;16.77;100.00;101466.25;5060880;28;20056;-72
2023/08/14 02:21:00;;;;;;;7.35;4.00;;;;;;;16.76;100.00;101459.31;5079135;28;20044;-72
2023/08/14 02:23:26;;;;;;;5.93;3.85;;;;;;;16.75;100.00;101451.53;5064515;28;20213;-73
2023/08/14 02:25:54;;;;;;;5.63;3.22;;;;;;;16.74;100.00;101456.03;5080564;28;20052;-71
2023/08/14 02:28:21;;;;;;;7.63;4.25;;;;;;;16.72;100.00;101450.06;5091505;28;20105;-72
2023/08/14 02:30:48;;;;;;;6.40;4.20;;;;;;;16.75;100.00;101455.00;5081972;28;20126;-71
2023/08/14 02:33:15;;;;;;;8.02;4.07;;;;;;;16.74;100.00;101445.44;5055219;28;20052;-74
2023/08/14 02:35:41;;;;;;;9.50;4.60;;;;;;;16.71;100.00;101448.41;5067117;28;21326;-73
2023/08/14 02:38:08;;;;;;;6.18;4.13;;;;;;;16.69;100.00;101445.09;5058585;28;20044;-73
2023/08/14 02:40:34;;;;;;;7.95;5.07;;;;;;;16.67;100.00;101451.59;5067098;28;20060;-73
2023/08/14 02:43:03;;;;;;;7.20;5.28;;;;;;;16.68;100.00;101447.91;5059614;28;20052;-73
2023/08/14 02:45:29;;;;;;;;;;;;;;;16.71;100.00;101450.25;5081139;28;20101;-71
2023/08/14 02:47:56;;;;;;;8.50;5.13;;;;;;;16.70;100.00;101451.22;5051297;28;19923;-71
2023/08/14 02:50:23;;;;;;;5.50;4.68;;;;;;;16.68;100.00;101443.47;5087806;28;20057;-73
2023/08/14 02:52:49;;;;;;;8.82;4.90;;;;;;;16.61;100.00;101443.31;5085632;28;20077;-73
2023/08/14 02:55:16;;;;;;;6.25;4.90;;;;;;;16.57;100.00;101449.94;5081307;28;20633;-73
2023/08/14 02:57:43;;;;;;;5.43;3.80;;;;;;;16.55;100.00;101448.47;5086558;28;20052;-73
2023/08/14 03:00:10;;;;;;;3.85;3.08;;;;;;;16.54;100.00;101450.31;5066592;28;20058;-71
2023/08/14 03:02:36;;;;;;;6.63;2.97;;;;;;;16.51;100.00;101449.81;5072421;28;20044;-73
2023/08/14 03:05:03;;;;;;;3.83;3.10;;;;;;;16.50;100.00;101442.84;5070343;28;20048;-73
2023/08/14 03:07:30;;;;;;;5.40;3.58;;;;;;;16.49;100.00;101447.34;5051988;28;20052;-73
2023/08/14 03:09:56;;;;;;;6.80;4.55;;;;;;;16.49;100.00;101451.81;5065269;28;20706;-72
2023/08/14 03:12:23;;;;;;;7.88;4.22;;;;;;;16.48;100.00;101455.44;5075583;28;20063;-73
2023/08/14 03:14:49;;;;;;;7.63;4.38;;;;;;;16.47;100.00;101453.81;5073677;28;20067;-72
2023/08/14 03:17:16;;;;;;;7.75;4.43;;;;;;;16.46;100.00;101446.84;5071402;28;20052;-73
2023/08/14 03:19:42;;;;;;;6.53;4.32;;;;;;;16.50;100.00;101446.31;5065250;28;20059;-73
2023/08/14 03:22:09;;;;;;;5.70;4.57;;;;;;;16.51;100.00;101442.69;5062489;28;20048;-74
2023/08/14 03:24:35;;;;;;;7.13;4.60;;;;;;;16.51;100.00;101444.53;5068825;28;20052;-73
2023/08/14 03:27:02;;;;;;;7.57;5.10;;;;;;;16.52;100.00;101446.16;5063341;28;20048;-74
2023/08/14 03:29:29;;;;;;;8.32;4.85;;;;;;;16.53;100.00;101451.28;5064894;28;20074;-73
2023/08/14 03:31:55;;;;;;;7.07;4.20;;;;;;;16.54;100.00;101446.81;5087060;28;20062;-73
2023/08/14 03:34:22;;;;;;;5.95;3.45;;;;;;;16.53;100.00;101453.94;5080088;28;20535;-73
2023/08/14 03:36:48;;;;;;;5.93;4.20;;;;;;;16.50;100.00;101448.16;5083206;28;20058;-74
2023/08/14 03:39:15;;;;;;;6.88;4.70;;;;;;;16.47;100.00;101451.16;5052581;28;20413;-73
2023/08/14 03:41:43;;;;;;;4.53;3.53;;;;;;;16.43;100.00;101460.44;5073100;28;20674;-73
2023/08/14 03:44:10;;;;;;;5.25;3.83;;;;;;;16.38;100.00;101459.09;5084585;28;20059;-73
2023/08/14 03:46:36;;;;;;;6.15;3.70;;;;;;;16.34;100.00;101454.31;5069751;28;20060;-73
2023/08/14 03:49:04;;;;;;;6.20;4.00;;;;;;;16.34;100.00;101456.97;5069244;28;20051;-73
2023/08/14 03:51:31;;;;;;;5.63;3.83;;;;;;;16.26;100.00;101446.41;5078105;28;20044;-73
2023/08/14 03:53:57;;;;;;;8.13;4.20;;;;;;;16.25;100.00;101448.22;5086236;28;20122;-73
2023/08/14 03:56:23;;;;;;;5.82;4.22;;;;;;;16.26;100.00;101454.34;5069913;28;20051;-72
2023/08/14 03:58:50;;;;;;;6.13;4.30;;;;;;;16.21;100.00;101450.38;5067597;28;20124;-73
2023/08/14 04:01:16;;;;;;;5.65;4.50;;;;;;;16.25;100.00;101450.03;5069211;28;20117;-73
2023/08/14 04:03:43;;;;;;;4.70;4.00;;;;;;;16.23;100.00;101447.56;5063657;28;20044;-73
2023/08/14 04:06:10;;;;;;;5.10;4.60;;;;;;;16.22;100.00;101451.19;5051931;28;20489;-73
2023/08/14 04:08:36;;;;;;;5.90;4.07;;;;;;;16.18;100.00;101450.69;5044448;28;20052;-72
2023/08/14 04:11:04;;;;;;;5.50;4.13;;;;;;;16.19;100.00;101449.72;5048591;28;20040;-73
2023/08/14 04:13:31;;;;;;;5.60;3.70;;;;;;;16.17;100.00;101445.56;5046932;28;20677;-73
2023/08/14 04:16:00;;;;;;;6.78;4.25;;;;;;;16.15;100.00;101450.22;5064509;28;20045;-72
2023/08/14 04:18:28;;;;;;;4.95;3.78;;;;;;;16.11;100.00;101446.25;5055065;28;20048;-72
2023/08/14 04:20:55;;;;;;;5.55;4.15;;;;;;;16.10;100.00;101448.06;5070447;28;20063;-72
2023/08/14 04:23:24;;;;;;;5.43;4.43;;;;;;;16.13;100.00;101445.09;5076456;28;20285;-72
2023/08/14 04:25:51;;;;;;;;;;;;;;;16.17;100.00;101438.47;5042993;28;20063;-72
2023/08/14 04:28:18;;;;;;;10.07;5.13;;;;;;;16.17;100.00;101437.63;5078798;28;19923;-72
2023/08/14 04:30:44;;;;;;;5.30;4.25;;;;;;;16.14;100.00;101425.56;5066388;28;20502;-72
2023/08/14 04:33:11;;;;;;;6.38;4.95;;;;;;;16.20;100.00;101429.38;5078757;28;20052;-72
2023/08/14 04:35:37;;;;;;;9.23;4.55;;;;;;;16.21;100.00;101429.19;5087133;28;20132;-72
2023/08/14 04:38:04;;;;;;;6.97;4.85;;;;;;;16.21;100.00;101431.84;5067473;28;20050;-72
2023/08/14 04:40:31;;;;;;;7.10;3.72;;;;;;;16.19;100.00;101427.69;5064106;28;20467;-72
2023/08/14 04:42:58;;;;;;;6.13;3.63;;;;;;;16.15;100.00;101434.31;5080387;28;20051;-72
2023/08/14 04:45:25;;;;;;;4.78;3.20;;;;;;;16.13;100.00;101425.72;5070410;28;20135;-72
2023/08/14 04:47:51;;;;;;;5.88;3.47;;;;;;;16.12;100.00;101421.44;5087789;28;20056;-71
2023/08/14 04:50:22;;;;;;;5.05;4.20;;;;;;;16.15;100.00;101423.75;5088118;28;20454;-71
2023/08/14 04:52:49;;;;;;;7.88;4.97;;;;;;;16.23;100.00;101428.19;5065429;28;20052;-71
2023/08/14 04:55:15;;;;;;;8.98;5.45;;;;;;;16.25;100.00;101426.19;5077959;28;20079;-71
2023/08/14 04:57:42;;;;;;;9.68;5.38;;;;;;;16.29;100.00;101430.16;5060421;28;20453;-71
2023/08/14 05:00:09;;;;;;;9.63;5.07;;;;;;;16.36;100.00;101431.16;5043872;28;20052;-71
2023/08/14 05:02:36;;;;;;;8.90;5.10;;;;;;;16.41;100.00;101429.66;5074265;28;20133;-71
2023/08/14 05:05:03;;;;;;;7.82;5.57;;;;;;;16.47;100.00;101433.44;5076525;28;20048;-71
2023/08/14 05:07:29;;;;;;;8.05;5.55;;;;;;;16.50;100.00;101421.66;5057930;28;20097;-71
2023/08/14 05:09:56;;;;;;;10.55;5.72;;;;;;;16.58;100.00;101430.44;5051515;28;20053;-71
2023/08/14 05:12:22;;;;;;;8.52;6.32;;;;;;;16.61;100.00;101418.66;5054076;28;20113;-71
2023/08/14 05:14:51;;;;;;;8.63;5.53;;;;;;;16.64;100.00;101413.03;5051292;28;20114;-72
2023/08/14 05:17:18;;;;;;;7.40;5.38;;;;;;;16.67;100.00;101411.84;5059842;28;20131;-72
2023/08/14 05:19:46;;;;;;;9.02;6.20;;;;;;;16.69;100.00;101408.03;5074444;28;20766;-72
2023/08/14 05:22:13;;;;;;;14.32;6.55;;;;;;;16.73;100.00;101405.84;5065160;28;20052;-72
2023/08/14 05:24:39;;;;;;;10.13;7.45;;;;;;;16.78;100.00;101406.19;5075955;28;20141;-72
2023/08/14 05:27:06;;;;;;;13.50;8.43;;;;;;;16.82;100.00;101402.22;5063020;28;20102;-72
2023/08/14 05:29:32;;;;;;;14.45;9.02;;;;;;;16.88;100.00;101404.16;5075654;28;20470;-72
2023/08/14 05:32:00;;;;;;;11.70;8.70;;;;;;;16.95;100.00;101409.59;5073782;28;20044;-72
2023/08/14 05:34:26;;;;;;;16.95;8.93;;;;;;;17.02;100.00;101407.09;5066288;28;20044;-74
2023/08/14 05:36:53;;;;;;;16.83;9.32;;;;;;;17.06;100.00;101401.25;5082057;28;20702;-72
2023/08/14 05:39:19;;;;;;;12.88;9.77;;;;;;;17.15;100.00;101405.50;5053173;28;20053;-72
2023/08/14 05:41:46;;;;;;;17.58;10.18;;;;;;;17.22;100.00;101397.66;5072767;28;20489;-71
2023/08/14 05:44:14;;;;;;;13.13;9.88;;;;;;;17.29;100.00;101403.06;5091411;28;20101;-72
2023/08/14 05:46:44;;;;;;;13.75;10.45;;;;;;;17.42;100.00;101413.09;5069370;28;20048;-72
2023/08/14 05:49:15;;;;;;;14.20;10.20;;;;;;;17.51;100.00;101410.22;5074698;28;20775;-72
2023/08/14 05:51:41;;;;;;;17.77;11.75;;;;;;;17.62;100.00;101406.34;5082399;28;20626;-72
2023/08/14 05:54:08;;;;;;;15.10;10.73;;;;;;;17.71;100.00;101409.72;5075876;28;21067;-72
2023/08/14 05:56:35;;;;;;;16.63;11.63;;;;;;;17.78;100.00;101406.19;5071754;28;20431;-72
2023/08/14 05:59:02;;;;;;;13.95;11.20;;;;;;;17.84;100.00;101407.31;5065507;28;20043;-72
2023/08/14 06:01:28;;;;;;;15.70;11.00;;;;;;;17.92;100.00;101406.44;5077105;28;20052;-72
2023/08/14 06:03:55;;;;;;;15.35;10.85;;;;;;;17.98;100.00;101400.38;5068961;28;20056;-71
2023/08/14 06:06:22;;;;;;;15.00;10.73;;;;;;;18.07;100.00;101407.28;5090180;28;20052;-72
2023/08/14 06:08:48;;;;;;;16.30;10.85;;;;;;;18.13;100.00;101411.84;5064379;28;20077;-72
2023/08/14 06:11:15;;;;;;;13.95;11.27;;;;;;;18.19;100.00;101412.97;5071955;28;20117;-72
2023/08/14 06:13:41;;;;;;;16.55;11.93;;;;;;;18.23;100.00;101413.41;5075638;28;20108;-72
2023/08/14 06:16:08;;;;;;;16.67;11.60;;;;;;;18.26;100.00;101418.34;5067002;28;20186;-73
2023/08/14 06:18:35;;;;;;;19.15;11.85;;;;;;;18.28;100.00;101421.66;5066383;28;20083;-72
2023/08/14 06:21:01;;;;;;;16.08;12.10;;;;;;;18.33;100.00;101424.59;5077436;28;20064;-73
2023/08/14 06:23:28;;;;;;;15.52;11.15;;;;;;;18.40;100.00;101430.81;5073151;28;20065;-72
2023/08/14 06:25:54;;;;;;;15.88;11.65;;;;;;;18.44;100.00;101437.41;5063643;28;20833;-72
2023/08/14 06:28:21;;;;;;;15.45;12.00;;;;;;;18.48;100.00;101436.00;5061498;28;20052;-72
2023/08/14 06:30:47;;;;;;;17.33;12.18;;;;;;;18.56;100.00;101432.44;5047332;28;20259;-72
2023/08/14 06:33:14;;;;;;;16.42;11.93;;;;;;;18.61;100.00;101450.50;5065392;28;20048;-72
2023/08/14 06:35:41;;;;;;;17.65;11.43;;;;;;;18.65;100.00;101454.44;5061409;28;20048;-72
2023/08/14 06:38:08;;;;;;;15.60;12.07;;;;;;;18.67;100.00;101453.25;5072357;28;20060;-72
2023/08/14 06:40:34;;;;;;;15.77;12.25;;;;;;;18.72;100.00;101453.53;5054839;28;20131;-72
2023/08/14 06:43:03;;;;;;;17.55;11.65;;;;;;;18.76;100.00;101460.13;5054443;28;20128;-72
2023/08/14 06:45:29;;;;;;;;;;;;;;;18.87;100.00;101448.19;5078987;28;20048;-73
2023/08/14 06:47:56;;;;;;;18.92;11.25;;;;;;;18.92;100.00;101452.97;5071833;28;19944;-72
2023/08/14 06:50:23;;;;;;;20.02;12.02;;;;;;;18.95;100.00;101450.78;5083387;28;20052;-72
2023/08/14 06:52:49;;;;;;;16.67;10.82;;;;;;;19.00;100.00;101450.22;5088113;28;20089;-72
2023/08/14 06:55:16;;;;;;;12.98;8.45;;;;;;;19.04;100.00;101435.53;5074365;28;20047;-72
2023/08/14 06:57:42;;;;;;;14.65;9.25;;;;;;;19.11;100.00;101439.09;5076932;28;20055;-73
2023/08/14 07:00:13;;;;;;;19.17;11.90;;;;;;;19.19;100.00;101430.19;5055762;28;20052;-72
2023/08/14 07:02:40;;;;;;;21.48;11.23;;;;;;;19.23;100.00;101427.94;5071046;28;20084;-72
2023/08/14 07:05:09;;;;;;;19.08;8.82;;;;;;;19.31;100.00;101423.34;5068598;28;20047;-73
2023/08/14 07:07:37;;;;;;;21.00;9.95;;;;;;;19.39;100.00;101421.56;5079985;28;20055;-72
2023/08/14 07:10:04;;;;;;;24.05;11.15;;;;;;;19.49;100.00;101436.19;5067100;28;20052;-72
2023/08/14 07:12:31;;;;;;;18.15;8.88;;;;;;;19.56;100.00;101428.25;5063944;28;20055;-72
2023/08/14 07:14:58;;;;;;;20.85;10.07;;;;;;;19.66;100.00;101415.47;5052500;28;20402;-72
2023/08/14 07:17:24;;;;;;;18.10;9.73;;;;;;;19.76;100.00;101423.16;5068682;28;20051;-72
2023/08/14 07:19:51;;;;;;;16.38;8.45;;;;;;;19.82;100.00;101416.25;5069864;28;20111;-72
2023/08/14 07:22:17;;;;;;;14.00;7.93;;;;;;;19.90;100.00;101416.09;5078521;28;20135;-71
2023/08/14 07:24:44;;;;;;;17.45;7.47;;;;;;;19.93;100.00;101419.22;5080528;28;20054;-72
2023/08/14 07:27:11;;;;;;;19.30;8.55;;;;;;;19.94;100.00;101422.69;5085636;28;20055;-72
2023/08/14 07:29:37;;;;;;;17.63;8.40;;;;;;;19.99;100.00;101422.09;5072470;28;20730;-70
2023/08/14 07:32:04;;;;;;;13.75;7.40;;;;;;;20.06;100.00;101429.13;5085000;28;20047;-72
2023/08/14 07:34:31;;;;;;;16.63;7.57;;;;;;;20.20;100.00;101423.88;5072091;28;20052;-72
2023/08/14 07:36:58;;;;;;;14.10;8.00;;;;;;;20.31;100.00;101428.66;5060262;28;20052;-72
2023/08/14 07:39:24;;;;;;;14.63;7.32;;;;;;;20.36;100.00;101415.56;5086321;28;20056;-72
2023/08/14 07:41:51;;;;;;;14.15;7.65;;;;;;;20.37;100.00;101408.41;5063623;28;20052;-72
2023/08/14 07:44:17;;;;;;;18.13;7.38;;;;;;;20.43;100.00;101416.44;5069518;28;20043;-72
2023/08/14 07:46:44;;;;;;;16.95;8.55;;;;;;;20.53;100.00;101424.06;5059605;28;20052;-72
2023/08/14 07:49:10;;;;;;;18.02;7.80;;;;;;;20.46;100.00;101418.69;5078179;28;20508;-72
2023/08/14 07:51:36;;;;;;;11.30;7.32;;;;;;;20.63;100.00;101413.88;5060785;28;20063;-72
2023/08/14 07:54:03;;;;;;;12.70;6.90;;;;;;;20.71;100.00;101421.69;5084696;28;20052;-72
2023/08/14 07:56:30;;;;;;;11.45;6.03;;;;;;;20.70;100.00;101417.41;5084498;28;20550;-72
2023/08/14 07:58:56;;;;;;;15.70;5.60;;;;;;;20.84;100.00;101417.47;5078361;28;20067;-72
2023/08/14 08:01:23;;;;;;;17.90;6.88;;;;;;;20.90;100.00;101424.66;5064771;28;20048;-72
2023/08/14 08:03:49;;;;;;;15.35;6.30;;;;;;;20.96;100.00;101421.19;5075220;28;20424;-72
2023/08/14 08:06:16;;;;;;;14.27;5.60;;;;;;;20.94;100.00;101424.06;5067525;28;20109;-72
2023/08/14 08:08:43;;;;;;;16.00;6.72;;;;;;;20.92;100.00;101431.44;5064729;28;20048;-73
2023/08/14 08:11:13;;;;;;;10.27;5.03;;;;;;;20.90;100.00;101435.31;5083072;28;20496;-72
2023/08/14 08:13:40;;;;;;;13.68;6.25;;;;;;;20.92;100.00;101427.94;5087700;28;20044;-72
2023/08/14 08:16:08;;;;;;;14.23;6.85;;;;;;;20.94;100.00;101437.38;5073261;28;20114;-72
2023/08/14 08:18:36;;;;;;;10.80;5.30;;;;;;;21.07;100.00;101438.44;5081240;28;20477;-72
2023/08/14 08:21:02;;;;;;;16.20;6.95;;;;;;;21.17;100.00;101438.06;5079573;28;20071;-71
2023/08/14 08:23:29;;;;;;;13.18;6.40;;;;;;;21.30;100.00;101449.56;5087125;28;20036;-71
2023/08/14 08:25:55;;;;;;;16.73;6.60;;;;;;;21.52;100.00;101446.75;5082791;28;20118;-72
2023/08/14 08:28:22;;;;;;;11.68;5.63;;;;;;;21.85;100.00;101436.09;5066736;28;20039;-72
2023/08/14 08:30:49;;;;;;;20.67;6.35;;;;;;;22.09;100.00;101428.47;5081068;28;20051;-72
2023/08/14 08:33:15;;;;;;;14.82;5.82;;;;;;;22.47;100.00;101428.63;5079905;28;20072;-72
2023/08/14 08:35:53;;;;;;;16.67;6.40;;;;;;;22.60;100.00;101429.59;5088261;28;20167;-71
2023/08/14 08:38:19;;;;;;;14.18;6.13;;;;;;;22.80;98.73;101425.00;5062941;28;20055;-72
2023/08/14 08:40:48;;;;;;;15.38;5.93;;;;;;;23.01;98.82;101429.22;5087946;28;20056;-72
2023/08/14 08:43:16;;;;;;;18.58;5.70;;;;;;;23.27;97.58;101428.25;5064202;28;20047;-72
2023/08/14 08:45:48;;;;;;;14.05;5.93;;;;;;;23.40;93.70;101421.16;5087232;28;20039;-72
2023/08/14 08:48:17;;;;;;;12.95;5.43;;;;;;;23.56;96.87;101411.78;5106466;28;20101;-72
2023/08/14 08:50:45;;;;;;;12.10;4.43;;;;;;;23.65;91.58;101413.97;5099157;28;20111;-72
2023/08/14 08:53:12;;;;;;;10.43;4.72;;;;;;;23.86;92.51;101407.44;5107056;28;20056;-72
2023/08/14 08:55:39;;;;;;;10.00;3.88;;;;;;;24.20;93.29;101409.78;5064412;28;20113;-72
2023/08/14 08:58:07;;;;;;;15.45;4.40;;;;;;;24.55;94.03;101398.47;5086368;28;20883;-72
2023/08/14 09:00:34;;;;;;;11.90;4.28;;;;;;;24.87;93.69;101393.72;5062477;28;20024;-72
2023/08/14 09:03:00;;;;;;;10.00;4.05;;;;;;;25.08;89.94;101391.56;5086856;28;20105;-72
2023/08/14 09:05:30;;;;;;;10.15;3.72;;;;;;;25.24;87.01;101391.75;5086290;28;20089;-72
2023/08/14 09:07:57;;;;;;;16.08;3.90;;;;;;;25.54;86.41;101385.50;5080354;28;20485;-72
2023/08/14 09:10:23;;;;;;;11.35;3.97;;;;;;;25.75;86.31;101385.97;5078656;28;20057;-72
2023/08/14 09:12:50;;;;;;;9.55;3.58;;;;;;;25.79;79.24;101393.31;5075286;28;20113;-72
2023/08/14 09:15:17;;;;;;;11.30;3.92;;;;;;;25.95;81.31;101391.84;5084272;28;20082;-71
2023/08/14 09:17:43;;;;;;;11.68;4.38;;;;;;;26.19;81.59;101397.19;5083199;28;20044;-71
2023/08/14 09:20:14;;;;;;;9.13;3.33;;;;;;;26.41;80.29;101395.47;5065505;28;20056;-72
2023/08/14 09:22:58;;;;;;;9.80;4.10;;;;;;;26.66;79.41;101380.09;5082661;28;20071;-74
2023/08/14 09:25:26;;;;;;;10.77;4.05;;;;;;;26.66;74.54;101382.78;5055537;28;20056;-71
2023/08/14 09:27:55;;;;;;;10.18;3.45;;;;;;;26.56;73.51;101383.38;5084085;28;20094;-71
2023/08/14 09:30:25;;;;;;;12.50;4.18;;;;;;;26.81;75.29;101380.38;5058588;28;20541;-72
2023/08/14 09:32:53;;;;;;;9.13;3.28;;;;;;;27.01;75.76;101380.75;5084706;28;20047;-72
2023/08/14 09:35:20;;;;;;;12.25;3.90;;;;;;;26.94;70.15;101380.09;5077165;28;20044;-71
2023/08/14 09:37:47;;;;;;;9.30;3.10;;;;;;;27.18;74.57;101378.06;5061109;28;20044;-72
2023/08/14 09:40:17;;;;;;;11.50;3.83;;;;;;;27.19;68.36;101376.22;5078954;28;20147;-71
2023/08/14 09:42:48;;;;;;;11.25;3.83;;;;;;;27.43;68.00;101368.81;5060855;28;20083;-71
2023/08/14 09:45:17;;;;;;;7.95;3.30;;;;;;;27.42;66.52;101367.16;5081694;28;20532;-71
2023/08/14 09:47:47;;;;;;;9.07;3.15;;;;;;;27.62;69.06;101369.38;5058979;28;20055;-71
2023/08/14 09:50:19;;;;;;;11.05;3.17;;;;;;;27.75;63.61;101370.88;5080329;28;20050;-72
2023/08/14 09:52:46;;;;;;;10.75;3.33;;;;;;;28.06;66.73;101377.53;5053508;28;20331;-71
2023/08/14 09:55:14;;;;;;;8.25;2.65;;;;;;;28.21;62.35;101366.13;5080856;28;20585;-71
2023/08/14 09:57:41;;;;;;;;;;;;;;;28.38;62.38;101377.66;5066013;28;20040;-71
2023/08/14 10:00:08;;;;;;;7.07;2.90;;;;;;;28.32;61.00;101378.66;5060059;28;19920;-71
2023/08/14 10:02:37;;;;;;;8.73;2.73;;;;;;;28.44;63.39;101381.22;5082727;28;20048;-71
2023/08/14 10:05:09;;;;;;;7.72;2.72;;;;;;;27.90;59.39;101381.91;5071595;28;20368;-71
2023/08/14 10:07:37;;;;;;;8.35;2.67;;;;;;;27.64;61.06;101386.09;5058728;28;20052;-71
2023/08/14 10:10:07;;;;;;;7.47;2.63;;;;;;;27.46;58.61;101375.56;5076515;28;20044;-71
2023/08/14 10:12:50;;;;;;;5.70;1.92;;;;;;;27.44;60.35;101378.50;5081705;28;20322;-71
2023/08/14 10:15:24;;;;;;;5.50;1.95;;;;;;;27.15;56.19;101380.44;5082953;28;20056;-72
2023/08/14 10:17:56;;;;;;;6.30;2.45;;;;;;;27.50;61.01;101374.00;5058265;28;20102;-72
2023/08/14 10:20:24;;;;;;;12.77;2.95;;;;;;;27.39;61.46;101370.34;5080046;28;20071;-71
2023/08/14 10:22:53;;;;;;;7.63;2.58;;;;;;;27.61;58.37;101370.41;5077494;28;20097;-71
2023/08/14 10:25:22;;;;;;;9.23;2.92;;;;;;;27.65;56.58;101359.97;5084285;28;20390;-71
2023/08/14 10:27:51;;;;;;;9.68;2.50;;;;;;;28.03;58.64;101352.94;5061927;28;20040;-72
2023/08/14 10:30:22;;;;;;;8.65;2.30;;;;;;;28.01;58.00;101355.88;5080966;28;20044;-72
2023/08/14 10:32:51;;;;;;;5.75;2.17;;;;;;;28.18;54.08;101348.53;5082676;28;20504;-74
2023/08/14 10:35:20;;;;;;;10.52;2.20;;;;;;;28.39;54.74;101340.72;5081992;28;20548;-74
2023/08/14 10:37:48;;;;;;;6.95;2.08;;;;;;;28.48;56.06;101338.34;5065085;28;20052;-73
2023/08/14 10:40:30;;;;;;;6.55;2.15;;;;;;;28.75;53.41;101323.00;5076939;28;20066;-72
2023/08/14 10:42:58;;;;;;;5.88;1.52;;;;;;;28.66;51.61;101323.72;5086576;28;20408;-73
2023/08/14 10:45:27;;;;;;;6.85;1.98;;;;;;;28.94;51.94;101318.03;5062935;28;20158;-73
2023/08/14 10:47:59;;;;;;;5.00;1.70;;;;;;;29.18;52.81;101313.13;5086098;28;20510;-73
2023/08/14 10:50:28;;;;;;;5.03;1.83;;;;;;;28.82;49.21;101308.50;5080409;28;20128;-74
2023/08/14 10:52:56;;;;;;;4.32;1.80;;;;;;;28.58;49.89;101315.03;5084391;28;20522;-73
2023/08/14 10:55:25;;;;;;;7.80;2.10;;;;;;;28.39;50.31;101305.63;5079533;28;20051;-73
2023/08/14 10:57:54;;;;;;;6.13;2.05;;;;;;;28.47;49.96;101301.66;5075885;28;20052;-72
2023/08/14 11:00:23;;;;;;;6.07;2.10;;;;;;;28.17;50.83;101301.09;5086516;28;20127;-73
2023/08/14 11:02:53;;;;;;;7.68;2.30;;;;;;;27.95;51.91;101311.06;5077943;28;20087;-73
2023/08/14 11:05:20;;;;;;;8.20;2.40;;;;;;;28.22;51.69;101294.13;5080306;28;20064;-73
2023/08/14 11:07:59;;;;;;;7.93;2.25;;;;;;;28.36;51.48;101300.72;5077766;28;20416;-73
2023/08/14 11:10:26;;;;;;;8.07;2.30;;;;;;;28.81;53.68;101296.06;5079680;28;20157;-72
2023/08/14 11:12:55;;;;;;;7.25;2.03;;;;;;;29.10;51.96;101307.38;5068230;28;20083;-72
2023/08/14 11:15:22;;;;;;;6.20;2.00;;;;;;;29.08;49.34;101302.22;5063576;28;20087;-73
2023/08/14 11:17:49;;;;;;;5.35;2.00;;;;;;;29.15;47.36;101296.63;5087160;28;20050;-73
2023/08/14 11:20:16;;;;;;;6.35;1.83;;;;;;;29.04;49.70;101309.22;5080415;28;20101;-73